createdAt,value
2018-12-06T00:00:25.869Z,1015.41
2018-12-06T00:01:25.861Z,1015.33
2018-12-06T00:02:25.846Z,1015.33
2018-12-06T00:03:25.845Z,1015.33
2018-12-06T00:04:25.823Z,1015.31
2018-12-06T00:05:25.816Z,1015.33
2018-12-06T00:06:25.804Z,1015.31
2018-12-06T00:07:25.792Z,1015.31
2018-12-06T00:08:25.789Z,1015.28
2018-12-06T00:09:25.771Z,1015.29
2018-12-06T00:10:25.760Z,1015.27
2018-12-06T00:11:25.750Z,1015.26
2018-12-06T00:12:25.739Z,1015.30
2018-12-06T00:13:25.745Z,1015.27
2018-12-06T00:14:25.718Z,1015.32
2018-12-06T00:15:25.709Z,1015.31
2018-12-06T00:16:25.697Z,1015.31
2018-12-06T00:17:25.688Z,1015.26
2018-12-06T00:18:25.686Z,1015.32
2018-12-06T00:19:25.666Z,1015.24
2018-12-06T00:20:25.655Z,1015.18
2018-12-06T00:21:25.645Z,1015.22
2018-12-06T00:22:25.634Z,1015.20
2018-12-06T00:23:25.635Z,1015.19
2018-12-06T00:24:25.617Z,1015.23
2018-12-06T00:25:25.603Z,1015.17
2018-12-06T00:26:25.591Z,1015.19
2018-12-06T00:27:25.581Z,1015.17
2018-12-06T00:28:25.583Z,1015.14
2018-12-06T00:29:25.560Z,1015.17
2018-12-06T00:30:25.551Z,1015.18
2018-12-06T00:31:25.538Z,1015.18
2018-12-06T00:32:25.530Z,1015.21
2018-12-06T00:33:25.551Z,1015.18
2018-12-06T00:34:25.508Z,1015.20
2018-12-06T00:35:25.497Z,1015.21
2018-12-06T00:36:25.492Z,1015.16
2018-12-06T00:37:25.476Z,1015.14
2018-12-06T00:38:25.469Z,1015.12
2018-12-06T00:39:25.463Z,1015.10
2018-12-06T00:40:25.446Z,1015.14
2018-12-06T00:41:25.435Z,1015.09
2018-12-06T00:42:25.428Z,1015.10
2018-12-06T00:43:25.413Z,1015.15
2018-12-06T00:44:25.410Z,1015.09
2018-12-06T00:45:25.393Z,1015.10
2018-12-06T00:46:25.383Z,1015.13
2018-12-06T00:47:25.377Z,1015.10
2018-12-06T00:48:25.373Z,1015.07
2018-12-06T00:49:25.359Z,1015.07
2018-12-06T00:50:25.340Z,1015.10
2018-12-06T00:51:25.328Z,1015.10
2018-12-06T00:52:25.318Z,1015.11
2018-12-06T00:53:25.313Z,1015.05
2018-12-06T00:54:25.309Z,1015.03
2018-12-06T00:55:25.287Z,1014.97
2018-12-06T00:56:25.277Z,1015.01
2018-12-06T00:57:25.267Z,1014.99
2018-12-06T00:58:25.258Z,1014.99
2018-12-06T00:59:25.254Z,1015.01
2018-12-06T01:00:25.239Z,1014.97
2018-12-06T01:01:25.224Z,1014.98
2018-12-06T01:02:25.214Z,1015.00
2018-12-06T01:03:25.201Z,1014.96
2018-12-06T01:04:25.221Z,1014.96
2018-12-06T01:05:25.181Z,1014.94
2018-12-06T01:06:25.170Z,1015.00
2018-12-06T01:07:25.161Z,1014.94
2018-12-06T01:08:25.148Z,1014.97
2018-12-06T01:09:25.141Z,1014.94
2018-12-06T01:10:25.137Z,1014.93
2018-12-06T01:11:25.117Z,1014.93
2018-12-06T01:12:25.108Z,1014.93
2018-12-06T01:13:25.097Z,1014.88
2018-12-06T01:14:25.086Z,1014.90
2018-12-06T01:15:25.088Z,1014.99
2018-12-06T01:16:25.066Z,1014.95
2018-12-06T01:17:25.056Z,1014.92
2018-12-06T01:18:25.045Z,1014.94
2018-12-06T01:19:25.033Z,1014.95
2018-12-06T01:20:25.033Z,1014.92
2018-12-06T01:21:25.013Z,1014.89
2018-12-06T01:22:25.005Z,1014.94
2018-12-06T01:23:24.995Z,1014.87
2018-12-06T01:24:24.981Z,1014.88
2018-12-06T01:25:24.982Z,1014.90
2018-12-06T01:26:24.962Z,1014.85
2018-12-06T01:27:24.950Z,1014.76
2018-12-06T01:28:24.941Z,1014.82
2018-12-06T01:29:24.935Z,1014.69
2018-12-06T01:30:24.936Z,1014.69
2018-12-06T01:31:24.910Z,1014.66
2018-12-06T01:32:24.898Z,1014.64
2018-12-06T01:33:24.889Z,1014.59
2018-12-06T01:34:24.877Z,1014.56
2018-12-06T01:35:24.881Z,1014.58
2018-12-06T01:36:24.856Z,1014.57
2018-12-06T01:37:24.846Z,1014.53
2018-12-06T01:38:24.835Z,1014.58
2018-12-06T01:39:24.825Z,1014.52
2018-12-06T01:40:24.813Z,1014.47
2018-12-06T01:41:24.813Z,1014.51
2018-12-06T01:42:24.795Z,1014.45
2018-12-06T01:43:24.782Z,1014.45
2018-12-06T01:44:24.773Z,1014.43
2018-12-06T01:45:24.765Z,1014.42
2018-12-06T01:46:24.759Z,1014.44
2018-12-06T01:47:24.746Z,1014.39
2018-12-06T01:48:24.731Z,1014.41
2018-12-06T01:49:24.719Z,1014.41
2018-12-06T01:50:24.709Z,1014.38
2018-12-06T01:51:24.716Z,1014.35
2018-12-06T01:52:24.692Z,1014.34
2018-12-06T01:53:24.684Z,1014.32
2018-12-06T01:54:24.668Z,1014.32
2018-12-06T01:55:24.657Z,1014.25
2018-12-06T01:56:24.654Z,1014.25
2018-12-06T01:57:24.640Z,1014.28
2018-12-06T01:58:24.630Z,1014.32
2018-12-06T01:59:24.622Z,1014.26
2018-12-06T02:00:24.605Z,1014.27
2018-12-06T02:01:24.603Z,1014.26
2018-12-06T02:02:24.581Z,1014.28
2018-12-06T02:03:24.577Z,1014.22
2018-12-06T02:04:24.564Z,1014.26
2018-12-06T02:05:24.550Z,1014.26
2018-12-06T02:06:24.575Z,1014.25
2018-12-06T02:07:24.530Z,1014.22
2018-12-06T02:08:24.519Z,1014.18
2018-12-06T02:09:24.514Z,1014.22
2018-12-06T02:10:24.498Z,1014.23
2018-12-06T02:11:24.489Z,1014.18
2018-12-06T02:12:24.486Z,1014.20
2018-12-06T02:13:24.467Z,1014.23
2018-12-06T02:14:24.456Z,1014.17
2018-12-06T02:15:24.447Z,1014.21
2018-12-06T02:16:24.439Z,1014.25
2018-12-06T02:17:24.440Z,1014.22
2018-12-06T02:18:24.419Z,1014.28
2018-12-06T02:19:24.408Z,1014.25
2018-12-06T02:20:24.394Z,1014.26
2018-12-06T02:21:24.382Z,1014.20
2018-12-06T02:22:24.384Z,1014.24
2018-12-06T02:23:24.362Z,1014.22
2018-12-06T02:24:24.352Z,1014.18
2018-12-06T02:25:24.341Z,1014.18
2018-12-06T02:26:24.331Z,1014.15
2018-12-06T02:27:24.332Z,1014.17
2018-12-06T02:28:24.314Z,1014.17
2018-12-06T02:29:24.299Z,1014.16
2018-12-06T02:30:24.292Z,1014.18
2018-12-06T02:31:24.279Z,1014.19
2018-12-06T02:32:24.280Z,1014.16
2018-12-06T02:33:24.259Z,1014.18
2018-12-06T02:34:24.249Z,1014.16
2018-12-06T02:35:24.237Z,1014.08
2018-12-06T02:36:24.225Z,1014.07
2018-12-06T02:37:24.223Z,1013.99
2018-12-06T02:38:24.205Z,1014.00
2018-12-06T02:39:24.196Z,1013.96
2018-12-06T02:40:24.189Z,1013.95
2018-12-06T02:41:24.174Z,1013.93
2018-12-06T02:42:24.180Z,1013.88
2018-12-06T02:43:24.155Z,1013.80
2018-12-06T02:44:24.142Z,1013.85
2018-12-06T02:45:24.140Z,1013.81
2018-12-06T02:46:24.123Z,1013.80
2018-12-06T02:47:24.119Z,1013.73
2018-12-06T02:48:24.101Z,1013.70
2018-12-06T02:49:24.089Z,1013.68
2018-12-06T02:50:24.084Z,1013.69
2018-12-06T02:51:24.068Z,1013.67
2018-12-06T02:52:24.095Z,1013.61
2018-12-06T02:53:24.049Z,1013.57
2018-12-06T02:54:24.042Z,1013.58
2018-12-06T02:55:24.026Z,1013.53
2018-12-06T02:56:24.016Z,1013.50
2018-12-06T02:57:24.006Z,1013.49
2018-12-06T02:58:24.073Z,1013.47
2018-12-06T02:59:23.987Z,1013.43
2018-12-06T03:00:23.976Z,1013.41
2018-12-06T03:01:23.963Z,1013.42
2018-12-06T03:02:23.953Z,1013.32
2018-12-06T03:03:23.951Z,1013.24
2018-12-06T03:04:23.938Z,1013.26
2018-12-06T03:05:23.921Z,1013.21
2018-12-06T03:06:23.911Z,1013.18
2018-12-06T03:07:23.904Z,1013.16
2018-12-06T03:08:23.903Z,1013.12
2018-12-06T03:09:23.884Z,1013.08
2018-12-06T03:10:23.869Z,1013.06
2018-12-06T03:11:23.859Z,1013.04
2018-12-06T03:12:23.852Z,1013.01
2018-12-06T03:13:23.849Z,1013.06
2018-12-06T03:14:23.832Z,1013.08
2018-12-06T03:15:23.817Z,1012.99
2018-12-06T03:16:23.807Z,1012.97
2018-12-06T03:17:23.797Z,1013.02
2018-12-06T03:18:23.793Z,1012.94
2018-12-06T03:19:23.776Z,1012.96
2018-12-06T03:20:23.765Z,1012.90
2018-12-06T03:21:23.758Z,1012.97
2018-12-06T03:22:23.744Z,1012.86
2018-12-06T03:23:23.744Z,1012.87
2018-12-06T03:24:23.728Z,1012.85
2018-12-06T03:25:23.714Z,1012.90
2018-12-06T03:26:23.701Z,1012.84
2018-12-06T03:27:23.700Z,1012.84
2018-12-06T03:28:23.699Z,1012.86
2018-12-06T03:29:23.669Z,1012.83
2018-12-06T03:30:23.661Z,1012.85
2018-12-06T03:31:23.653Z,1012.83
2018-12-06T03:32:23.643Z,1012.80
2018-12-06T03:33:23.663Z,1012.82
2018-12-06T03:34:23.622Z,1012.84
2018-12-06T03:35:23.607Z,1012.77
2018-12-06T03:36:23.596Z,1012.72
2018-12-06T03:37:23.585Z,1012.68
2018-12-06T03:38:23.587Z,1012.70
2018-12-06T03:39:23.575Z,1012.70
2018-12-06T03:40:23.557Z,1012.68
2018-12-06T03:41:23.543Z,1012.64
2018-12-06T03:42:23.533Z,1012.57
2018-12-06T03:43:23.555Z,1012.61
2018-12-06T03:44:23.512Z,1012.59
2018-12-06T03:45:23.506Z,1012.50
2018-12-06T03:46:23.491Z,1012.54
2018-12-06T03:47:23.485Z,1012.50
2018-12-06T03:48:23.471Z,1012.44
2018-12-06T03:49:23.467Z,1012.44
2018-12-06T03:50:23.450Z,1012.46
2018-12-06T03:51:23.441Z,1012.41
2018-12-06T03:52:23.450Z,1012.36
2018-12-06T03:53:23.430Z,1012.32
2018-12-06T03:54:23.416Z,1012.27
2018-12-06T03:55:23.396Z,1012.29
2018-12-06T03:56:23.387Z,1012.24
2018-12-06T03:57:23.396Z,1012.25
2018-12-06T03:58:23.365Z,1012.23
2018-12-06T03:59:23.363Z,1012.25
2018-12-06T04:00:23.344Z,1012.17
2018-12-06T04:01:23.334Z,1012.16
2018-12-06T04:02:23.325Z,1012.16
2018-12-06T04:03:23.312Z,1012.10
2018-12-06T04:04:23.310Z,1012.08
2018-12-06T04:05:23.293Z,1012.10
2018-12-06T04:06:23.281Z,1012.06
2018-12-06T04:07:23.271Z,1012.06
2018-12-06T04:08:23.264Z,1012.00
2018-12-06T04:09:23.277Z,1011.99
2018-12-06T04:10:23.243Z,1011.96
2018-12-06T04:11:23.228Z,1011.96
2018-12-06T04:12:23.224Z,1011.93
2018-12-06T04:13:23.213Z,1011.94
2018-12-06T04:14:23.197Z,1011.94
2018-12-06T04:15:23.197Z,1011.94
2018-12-06T04:16:23.178Z,1011.94
2018-12-06T04:17:23.166Z,1011.89
2018-12-06T04:18:23.155Z,1011.84
2018-12-06T04:19:23.144Z,1011.84
2018-12-06T04:20:23.145Z,1011.87
2018-12-06T04:21:23.123Z,1011.88
2018-12-06T04:22:23.115Z,1011.86
2018-12-06T04:23:23.105Z,1011.80
2018-12-06T04:24:23.095Z,1011.76
2018-12-06T04:25:23.092Z,1011.76
2018-12-06T04:26:23.072Z,1011.73
2018-12-06T04:27:23.064Z,1011.76
2018-12-06T04:28:23.060Z,1011.68
2018-12-06T04:29:23.042Z,1011.69
2018-12-06T04:30:23.039Z,1011.68
2018-12-06T04:31:23.019Z,1011.69
2018-12-06T04:32:23.011Z,1011.69
2018-12-06T04:33:22.998Z,1011.68
2018-12-06T04:34:22.988Z,1011.67
2018-12-06T04:35:22.985Z,1011.65
2018-12-06T04:36:22.969Z,1011.61
2018-12-06T04:37:22.956Z,1011.62
2018-12-06T04:38:22.950Z,1011.63
2018-12-06T04:39:22.936Z,1011.61
2018-12-06T04:40:22.934Z,1011.58
2018-12-06T04:41:22.917Z,1011.56
2018-12-06T04:42:22.903Z,1011.55
2018-12-06T04:43:22.894Z,1011.54
2018-12-06T04:44:22.884Z,1011.51
2018-12-06T04:45:22.879Z,1011.54
2018-12-06T04:46:22.860Z,1011.50
2018-12-06T04:47:22.850Z,1011.45
2018-12-06T04:48:22.839Z,1011.51
2018-12-06T04:49:22.831Z,1011.52
2018-12-06T04:50:22.860Z,1011.60
2018-12-06T04:51:22.807Z,1011.60
2018-12-06T04:52:22.797Z,1011.56
2018-12-06T04:53:22.786Z,1011.54
2018-12-06T04:54:22.776Z,1011.56
2018-12-06T04:55:22.773Z,1011.54
2018-12-06T04:56:22.772Z,1011.52
2018-12-06T04:57:22.743Z,1011.53
2018-12-06T04:58:22.734Z,1011.48
2018-12-06T04:59:22.725Z,1011.50
2018-12-06T05:00:22.716Z,1011.53
2018-12-06T05:01:22.712Z,1011.48
2018-12-06T05:02:22.690Z,1011.47
2018-12-06T05:03:22.678Z,1011.46
2018-12-06T05:04:22.669Z,1011.46
2018-12-06T05:05:22.658Z,1011.46
2018-12-06T05:06:22.700Z,1011.47
2018-12-06T05:07:22.638Z,1011.42
2018-12-06T05:08:22.627Z,1011.43
2018-12-06T05:09:22.615Z,1011.46
2018-12-06T05:10:22.604Z,1011.46
2018-12-06T05:11:22.604Z,1011.40
2018-12-06T05:12:22.590Z,1011.47
2018-12-06T05:13:22.580Z,1011.37
2018-12-06T05:14:22.563Z,1011.45
2018-12-06T05:15:22.552Z,1011.40
2018-12-06T05:16:22.550Z,1011.45
2018-12-06T05:17:22.530Z,1011.43
2018-12-06T05:18:22.522Z,1011.43
2018-12-06T05:19:22.515Z,1011.45
2018-12-06T05:20:22.499Z,1011.43
2018-12-06T05:21:22.514Z,1011.46
2018-12-06T05:22:22.476Z,1011.46
2018-12-06T05:23:22.466Z,1011.46
2018-12-06T05:24:22.457Z,1011.43
2018-12-06T05:25:22.453Z,1011.45
2018-12-06T05:26:22.435Z,1011.47
2018-12-06T05:27:22.431Z,1011.42
2018-12-06T05:28:22.413Z,1011.44
2018-12-06T05:29:22.404Z,1011.48
2018-12-06T05:30:22.393Z,1011.48
2018-12-06T05:31:22.387Z,1011.42
2018-12-06T05:32:22.378Z,1011.48
2018-12-06T05:33:22.368Z,1011.44
2018-12-06T05:34:22.350Z,1011.45
2018-12-06T05:35:22.344Z,1011.45
2018-12-06T05:36:22.331Z,1011.37
2018-12-06T05:37:22.327Z,1011.45
2018-12-06T05:38:22.306Z,1011.41
2018-12-06T05:39:22.296Z,1011.42
2018-12-06T05:40:22.286Z,1011.42
2018-12-06T05:41:22.279Z,1011.42
2018-12-06T05:42:22.276Z,1011.44
2018-12-06T05:43:22.257Z,1011.41
2018-12-06T05:44:22.243Z,1011.42
2018-12-06T05:45:22.236Z,1011.42
2018-12-06T05:46:22.222Z,1011.38
2018-12-06T05:47:22.221Z,1011.37
2018-12-06T05:48:22.200Z,1011.40
2018-12-06T05:49:22.191Z,1011.41
2018-12-06T05:50:22.185Z,1011.37
2018-12-06T05:51:22.169Z,1011.41
2018-12-06T05:52:22.353Z,1011.42
2018-12-06T05:53:22.150Z,1011.47
2018-12-06T05:54:22.140Z,1011.42
2018-12-06T05:55:22.126Z,1011.40
2018-12-06T05:56:22.115Z,1011.42
2018-12-06T05:57:22.105Z,1011.43
2018-12-06T05:58:22.107Z,1011.39
2018-12-06T05:59:22.085Z,1011.36
2018-12-06T06:00:22.081Z,1011.29
2018-12-06T06:01:22.062Z,1011.30
2018-12-06T06:02:22.054Z,1011.25
2018-12-06T06:03:22.050Z,1011.21
2018-12-06T06:04:22.032Z,1011.24
2018-12-06T06:05:22.019Z,1011.28
2018-12-06T06:06:22.012Z,1011.30
2018-12-06T06:07:22.002Z,1011.30
2018-12-06T06:08:21.995Z,1011.31
2018-12-06T06:09:21.979Z,1011.36
2018-12-06T06:10:21.968Z,1011.36
2018-12-06T06:11:21.956Z,1011.34
2018-12-06T06:12:21.948Z,1011.28
2018-12-06T06:13:21.946Z,1011.39
2018-12-06T06:14:21.924Z,1011.43
2018-12-06T06:15:21.913Z,1011.43
2018-12-06T06:16:21.903Z,1011.43
2018-12-06T06:17:21.932Z,1011.46
2018-12-06T06:18:21.897Z,1011.42
2018-12-06T06:19:21.922Z,1011.45
2018-12-06T06:20:21.859Z,1011.39
2018-12-06T06:21:21.848Z,1011.39
2018-12-06T06:22:21.837Z,1011.36
2018-12-06T06:23:21.848Z,1011.49
2018-12-06T06:24:21.816Z,1011.44
2018-12-06T06:25:21.806Z,1011.41
2018-12-06T06:26:21.795Z,1011.46
2018-12-06T06:27:21.783Z,1011.47
2018-12-06T06:28:22.076Z,1011.50
2018-12-06T06:29:21.763Z,1011.55
2018-12-06T06:30:21.757Z,1011.53
2018-12-06T06:31:21.741Z,1011.54
2018-12-06T06:32:21.738Z,1011.53
2018-12-06T06:33:21.720Z,1011.53
2018-12-06T06:34:21.726Z,1011.52
2018-12-06T06:35:21.701Z,1011.50
2018-12-06T06:36:21.687Z,1011.45
2018-12-06T06:37:21.676Z,1011.50
2018-12-06T06:38:21.673Z,1011.46
2018-12-06T06:39:21.664Z,1011.48
2018-12-06T06:40:21.646Z,1011.47
2018-12-06T06:41:21.639Z,1011.48
2018-12-06T06:42:21.623Z,1011.48
2018-12-06T06:43:21.614Z,1011.44
2018-12-06T06:44:21.609Z,1011.45
2018-12-06T06:45:21.593Z,1011.38
2018-12-06T06:46:21.581Z,1011.38
2018-12-06T06:47:21.592Z,1011.35
2018-12-06T06:48:21.560Z,1011.36
2018-12-06T06:49:21.556Z,1011.34
2018-12-06T06:50:21.544Z,1011.34
2018-12-06T06:51:21.530Z,1011.31
2018-12-06T06:52:21.520Z,1011.31
2018-12-06T06:53:21.507Z,1011.24
2018-12-06T06:54:21.503Z,1011.17
2018-12-06T06:55:21.484Z,1011.14
2018-12-06T06:56:21.473Z,1011.12
2018-12-06T06:57:21.470Z,1011.14
2018-12-06T06:58:21.452Z,1011.12
2018-12-06T06:59:26.069Z,1011.12
2018-12-06T07:00:22.435Z,1011.12
2018-12-06T07:01:21.432Z,1011.14
2018-12-06T07:02:21.411Z,1011.12
2018-12-06T07:03:21.403Z,1011.09
2018-12-06T07:04:21.397Z,1011.13
2018-12-06T07:05:21.378Z,1011.10
2018-12-06T07:06:21.366Z,1011.06
2018-12-06T07:07:21.357Z,1011.07
2018-12-06T07:08:21.347Z,1011.08
2018-12-06T07:09:21.362Z,1011.10
2018-12-06T07:10:21.329Z,1011.07
2018-12-06T07:11:21.315Z,1011.10
2018-12-06T07:12:21.303Z,1011.09
2018-12-06T07:13:21.292Z,1011.08
2018-12-06T07:14:21.282Z,1011.13
2018-12-06T07:15:21.281Z,1011.06
2018-12-06T07:16:21.267Z,1011.08
2018-12-06T07:17:21.249Z,1011.07
2018-12-06T07:18:21.239Z,1010.98
2018-12-06T07:19:21.232Z,1011.00
2018-12-06T07:20:21.227Z,1010.98
2018-12-06T07:21:21.207Z,1010.95
2018-12-06T07:22:21.207Z,1011.02
2018-12-06T07:23:21.185Z,1010.99
2018-12-06T07:24:21.175Z,1010.98
2018-12-06T07:25:21.174Z,1010.91
2018-12-06T07:26:21.155Z,1010.89
2018-12-06T07:27:21.146Z,1010.90
2018-12-06T07:28:21.131Z,1010.91
2018-12-06T07:29:21.126Z,1010.89
2018-12-06T07:30:21.122Z,1010.87
2018-12-06T07:31:21.100Z,1010.84
2018-12-06T07:32:21.113Z,1010.86
2018-12-06T07:33:21.080Z,1010.75
2018-12-06T07:34:21.069Z,1010.72
2018-12-06T07:35:21.066Z,1010.72
2018-12-06T07:36:21.046Z,1010.66
2018-12-06T07:37:21.037Z,1010.65
2018-12-06T07:38:21.032Z,1010.59
2018-12-06T07:39:21.015Z,1010.55
2018-12-06T07:40:21.015Z,1010.49
2018-12-06T07:41:20.992Z,1010.47
2018-12-06T07:42:20.987Z,1010.47
2018-12-06T07:43:20.972Z,1010.42
2018-12-06T07:44:20.960Z,1010.42
2018-12-06T07:45:20.980Z,1010.39
2018-12-06T07:46:20.938Z,1010.30
2018-12-06T07:47:20.931Z,1010.23
2018-12-06T07:48:20.917Z,1010.17
2018-12-06T07:49:20.908Z,1010.15
2018-12-06T07:50:20.896Z,1010.13
2018-12-06T07:51:20.895Z,1010.10
2018-12-06T07:52:20.875Z,1010.13
2018-12-06T07:53:20.864Z,1010.07
2018-12-06T07:54:20.855Z,1010.05
2018-12-06T07:55:20.848Z,1010.09
2018-12-06T07:56:20.840Z,1010.08
2018-12-06T07:57:20.831Z,1010.12
2018-12-06T07:58:20.809Z,1010.19
2018-12-06T07:59:20.800Z,1010.24
2018-12-06T08:00:20.789Z,1010.33
2018-12-06T08:01:20.791Z,1010.36
2018-12-06T08:02:20.770Z,1010.38
2018-12-06T08:03:20.763Z,1010.42
2018-12-06T08:04:20.817Z,1010.45
2018-12-06T08:05:20.738Z,1010.46
2018-12-06T08:06:20.732Z,1010.44
2018-12-06T08:07:20.724Z,1010.38
2018-12-06T08:08:20.702Z,1010.45
2018-12-06T08:09:20.692Z,1010.42
2018-12-06T08:10:20.682Z,1010.41
2018-12-06T08:11:20.680Z,1010.36
2018-12-06T08:12:20.669Z,1010.35
2018-12-06T08:13:20.650Z,1010.29
2018-12-06T08:14:20.651Z,1010.31
2018-12-06T08:15:20.627Z,1010.21
2018-12-06T08:16:20.654Z,1010.16
2018-12-06T08:17:20.607Z,1010.10
2018-12-06T08:18:20.598Z,1010.14
2018-12-06T08:19:20.589Z,1010.20
2018-12-06T08:20:20.576Z,1010.20
2018-12-06T08:21:20.563Z,1010.20
2018-12-06T08:22:20.561Z,1010.24
2018-12-06T08:23:20.543Z,1010.31
2018-12-06T08:24:20.532Z,1010.37
2018-12-06T08:25:20.525Z,1010.47
2018-12-06T08:26:20.517Z,1010.50
2018-12-06T08:27:20.507Z,1010.55
2018-12-06T08:28:20.490Z,1010.54
2018-12-06T08:29:20.479Z,1010.58
2018-12-06T08:30:20.471Z,1010.60
2018-12-06T08:31:20.458Z,1010.64
2018-12-06T08:32:20.457Z,1010.56
2018-12-06T08:33:20.436Z,1010.62
2018-12-06T08:34:20.426Z,1010.60
2018-12-06T08:35:20.424Z,1010.63
2018-12-06T08:36:20.407Z,1010.66
2018-12-06T08:37:20.405Z,1010.73
2018-12-06T08:38:20.389Z,1010.79
2018-12-06T08:39:20.375Z,1010.71
2018-12-06T08:40:20.364Z,1010.78
2018-12-06T08:41:20.352Z,1010.86
2018-12-06T08:42:20.375Z,1010.81
2018-12-06T08:43:20.338Z,1010.86
2018-12-06T08:44:21.384Z,1010.84
2018-12-06T08:45:20.310Z,1010.88
2018-12-06T08:46:20.299Z,1010.88
2018-12-06T08:47:20.288Z,1010.94
2018-12-06T08:48:20.288Z,1010.91
2018-12-06T08:49:20.271Z,1010.93
2018-12-06T08:50:21.265Z,1010.94
2018-12-06T08:51:20.246Z,1010.88
2018-12-06T08:52:20.235Z,1010.84
2018-12-06T08:53:20.233Z,1010.85
2018-12-06T08:54:20.213Z,1010.89
2018-12-06T08:55:20.203Z,1010.89
2018-12-06T08:56:20.192Z,1010.88
2018-12-06T08:57:20.182Z,1010.93
2018-12-06T08:58:20.179Z,1010.92
2018-12-06T08:59:20.179Z,1010.96
2018-12-06T09:00:20.149Z,1010.97
2018-12-06T09:01:20.139Z,1011.01
2018-12-06T09:02:20.128Z,1011.03
2018-12-06T09:03:20.131Z,1011.04
2018-12-06T09:04:20.113Z,1011.13
2018-12-06T09:05:20.100Z,1011.19
2018-12-06T09:06:20.085Z,1011.19
2018-12-06T09:07:20.087Z,1011.24
2018-12-06T09:08:20.074Z,1011.27
2018-12-06T09:09:20.053Z,1011.30
2018-12-06T09:10:20.045Z,1011.31
2018-12-06T09:11:20.036Z,1011.31
2018-12-06T09:12:20.023Z,1011.30
2018-12-06T09:13:20.019Z,1011.33
2018-12-06T09:14:20.000Z,1011.27
2018-12-06T09:15:19.990Z,1011.32
2018-12-06T09:16:19.980Z,1011.34
2018-12-06T09:17:19.971Z,1011.33
2018-12-06T09:18:19.965Z,1011.33
2018-12-06T09:19:19.948Z,1011.31
2018-12-06T09:20:19.936Z,1011.32
2018-12-06T09:21:19.928Z,1011.32
2018-12-06T09:22:19.915Z,1011.29
2018-12-06T09:23:19.938Z,1011.28
2018-12-06T09:24:19.894Z,1011.26
2018-12-06T09:25:21.292Z,1011.29
2018-12-06T09:26:19.873Z,1011.28
2018-12-06T09:27:19.862Z,1011.22
2018-12-06T09:28:19.850Z,1011.23
2018-12-06T09:29:19.850Z,1011.26
2018-12-06T09:30:19.829Z,1011.26
2018-12-06T09:31:19.819Z,1011.31
2018-12-06T09:32:19.808Z,1011.26
2018-12-06T09:33:19.800Z,1011.23
2018-12-06T09:34:19.797Z,1011.23
2018-12-06T09:35:19.775Z,1011.23
2018-12-06T09:36:19.771Z,1011.26
2018-12-06T09:37:19.755Z,1011.22
2018-12-06T09:38:19.743Z,1011.21
2018-12-06T09:39:19.743Z,1011.20
2018-12-06T09:40:19.726Z,1011.26
2018-12-06T09:41:19.715Z,1011.25
2018-12-06T09:42:19.704Z,1011.25
2018-12-06T09:43:19.691Z,1011.22
2018-12-06T09:44:19.691Z,1011.20
2018-12-06T09:45:19.671Z,1011.17
2018-12-06T09:46:19.663Z,1011.16
2018-12-06T09:47:19.649Z,1011.19
2018-12-06T09:48:19.662Z,1011.17
2018-12-06T09:49:19.635Z,1011.13
2018-12-06T09:50:19.620Z,1011.12
2018-12-06T09:51:19.608Z,1011.09
2018-12-06T09:52:19.596Z,1011.05
2018-12-06T09:53:19.586Z,1011.05
2018-12-06T09:54:19.584Z,1011.02
2018-12-06T09:55:19.564Z,1010.98
2018-12-06T09:56:19.557Z,1011.01
2018-12-06T09:57:19.544Z,1011.00
2018-12-06T09:58:19.533Z,1011.03
2018-12-06T09:59:19.531Z,1011.05
2018-12-06T10:00:19.517Z,1011.08
2018-12-06T10:01:19.501Z,1011.09
2018-12-06T10:02:19.491Z,1011.07
2018-12-06T10:03:19.485Z,1011.08
2018-12-06T10:04:19.511Z,1011.04
2018-12-06T10:05:19.463Z,1011.08
2018-12-06T10:06:19.449Z,1011.06
2018-12-06T10:07:19.438Z,1011.09
2018-12-06T10:08:19.430Z,1011.05
2018-12-06T10:09:19.418Z,1011.12
2018-12-06T10:10:19.417Z,1011.07
2018-12-06T10:11:19.397Z,1011.04
2018-12-06T10:12:19.387Z,1011.06
2018-12-06T10:13:19.386Z,1011.03
2018-12-06T10:14:19.769Z,1011.04
2018-12-06T10:15:19.367Z,1011.02
2018-12-06T10:16:19.344Z,1010.98
2018-12-06T10:17:19.338Z,1010.97
2018-12-06T10:18:19.323Z,1010.95
2018-12-06T10:19:19.312Z,1010.92
2018-12-06T10:20:19.315Z,1010.92
2018-12-06T10:21:19.292Z,1010.88
2018-12-06T10:22:19.282Z,1010.94
2018-12-06T10:23:19.302Z,1010.88
2018-12-06T10:24:19.260Z,1010.92
2018-12-06T10:25:19.258Z,1010.88
2018-12-06T10:26:19.242Z,1010.84
2018-12-06T10:27:19.230Z,1010.86
2018-12-06T10:28:19.218Z,1010.77
2018-12-06T10:29:19.215Z,1010.82
2018-12-06T10:30:19.212Z,1010.84
2018-12-06T10:31:19.186Z,1010.77
2018-12-06T10:32:19.175Z,1010.81
2018-12-06T10:33:19.168Z,1010.78
2018-12-06T10:34:19.154Z,1010.81
2018-12-06T10:35:19.158Z,1010.78
2018-12-06T10:36:19.134Z,1010.74
2018-12-06T10:37:19.122Z,1010.69
2018-12-06T10:38:19.117Z,1010.70
2018-12-06T10:39:19.102Z,1010.67
2018-12-06T10:40:19.125Z,1010.69
2018-12-06T10:41:19.083Z,1010.68
2018-12-06T10:42:19.070Z,1010.64
2018-12-06T10:43:19.064Z,1010.61
2018-12-06T10:44:19.051Z,1010.61
2018-12-06T10:45:19.040Z,1010.58
2018-12-06T10:46:19.036Z,1010.65
2018-12-06T10:47:19.022Z,1010.59
2018-12-06T10:48:19.008Z,1010.58
2018-12-06T10:49:18.998Z,1010.56
2018-12-06T10:50:18.985Z,1010.53
2018-12-06T10:51:18.989Z,1010.50
2018-12-06T10:52:18.967Z,1010.50
2018-12-06T10:53:18.954Z,1010.48
2018-12-06T10:54:18.943Z,1010.50
2018-12-06T10:55:18.932Z,1010.53
2018-12-06T10:56:18.934Z,1010.51
2018-12-06T10:57:18.917Z,1010.46
2018-12-06T10:58:18.903Z,1010.46
2018-12-06T10:59:18.926Z,1010.46
2018-12-06T11:00:18.880Z,1010.40
2018-12-06T11:01:18.882Z,1010.39
2018-12-06T11:02:18.862Z,1010.42
2018-12-06T11:03:18.849Z,1010.33
2018-12-06T11:04:18.838Z,1010.35
2018-12-06T11:05:18.827Z,1010.27
2018-12-06T11:06:18.826Z,1010.28
2018-12-06T11:07:18.806Z,1010.28
2018-12-06T11:08:18.797Z,1010.27
2018-12-06T11:09:18.785Z,1010.28
2018-12-06T11:10:18.775Z,1010.24
2018-12-06T11:11:18.776Z,1010.16
2018-12-06T11:12:18.754Z,1010.17
2018-12-06T11:13:18.745Z,1010.20
2018-12-06T11:14:18.735Z,1010.19
2018-12-06T11:15:18.723Z,1010.21
2018-12-06T11:16:18.723Z,1010.19
2018-12-06T11:17:18.703Z,1010.17
2018-12-06T11:18:18.692Z,1010.12
2018-12-06T11:19:18.681Z,1010.14
2018-12-06T11:20:18.669Z,1010.09
2018-12-06T11:21:18.671Z,1010.00
2018-12-06T11:22:18.652Z,1010.09
2018-12-06T11:23:18.638Z,1010.06
2018-12-06T11:24:18.627Z,1010.01
2018-12-06T11:25:18.616Z,1010.00
2018-12-06T11:26:18.637Z,1009.95
2018-12-06T11:27:18.595Z,1010.01
2018-12-06T11:28:18.587Z,1009.87
2018-12-06T11:29:18.574Z,1009.92
2018-12-06T11:30:18.563Z,1009.94
2018-12-06T11:31:18.552Z,1009.96
2018-12-06T11:32:18.555Z,1009.95
2018-12-06T11:33:18.532Z,1009.99
2018-12-06T11:34:18.524Z,1010.03
2018-12-06T11:35:18.508Z,1010.00
2018-12-06T11:36:18.499Z,1010.11
2018-12-06T11:37:18.496Z,1010.12
2018-12-06T11:38:18.479Z,1010.17
2018-12-06T11:39:18.470Z,1010.17
2018-12-06T11:40:18.457Z,1010.21
2018-12-06T11:41:18.445Z,1010.18
2018-12-06T11:42:19.070Z,1010.17
2018-12-06T11:43:18.425Z,1010.24
2018-12-06T11:44:18.414Z,1010.17
2018-12-06T11:45:18.403Z,1010.12
2018-12-06T11:46:18.392Z,1010.14
2018-12-06T11:47:18.390Z,1010.16
2018-12-06T11:48:18.370Z,1010.10
2018-12-06T11:49:18.359Z,1010.10
2018-12-06T11:50:18.349Z,1010.10
2018-12-06T11:51:18.340Z,1010.00
2018-12-06T11:52:18.337Z,1010.00
2018-12-06T11:53:19.326Z,1009.97
2018-12-06T11:54:18.305Z,1009.95
2018-12-06T11:55:18.332Z,1009.89
2018-12-06T11:56:18.285Z,1009.82
2018-12-06T11:57:18.281Z,1009.80
2018-12-06T11:58:18.262Z,1009.77
2018-12-06T11:59:18.252Z,1009.79
2018-12-06T12:00:18.242Z,1009.83
2018-12-06T12:01:18.231Z,1009.82
2018-12-06T12:02:18.227Z,1009.82
2018-12-06T12:03:18.289Z,1009.85
2018-12-06T12:04:18.198Z,1009.82
2018-12-06T12:05:18.187Z,1009.82